createdAt,value
2022-09-20T00:01:03.610Z,31.43
2022-09-20T00:06:48.080Z,31.23
2022-09-20T00:08:10.511Z,31.16
2022-09-20T00:12:00.818Z,31.06
2022-09-20T00:13:25.121Z,30.95
2022-09-20T00:14:45.876Z,30.84
2022-09-20T00:16:16.564Z,30.81
2022-09-20T00:18:12.931Z,30.72
2022-09-20T00:19:23.020Z,30.60
2022-09-20T00:20:30.692Z,30.44
2022-09-20T00:21:38.734Z,30.39
2022-09-20T00:22:45.627Z,30.35
2022-09-20T00:23:53.875Z,30.31
2022-09-20T00:25:02.653Z,30.40
2022-09-20T00:26:09.953Z,30.15
2022-09-20T00:27:18.167Z,30.15
2022-09-20T00:28:26.927Z,30.00
2022-09-20T00:29:37.324Z,29.92
2022-09-20T00:30:45.849Z,29.89
2022-09-20T00:31:53.755Z,29.81
2022-09-20T00:32:59.580Z,29.71
2022-09-20T00:34:26.460Z,29.62
2022-09-20T00:35:35.284Z,29.34
2022-09-20T00:36:42.303Z,29.03
2022-09-20T00:37:50.652Z,28.89
2022-09-20T00:39:00.981Z,28.77
2022-09-20T00:40:10.586Z,28.76
2022-09-20T00:41:17.217Z,28.75
2022-09-20T00:42:30.017Z,28.84
2022-09-20T00:43:45.019Z,28.81
2022-09-20T00:44:52.164Z,28.78
2022-09-20T00:46:04.886Z,28.79
2022-09-20T00:47:34.344Z,28.82
2022-09-20T00:48:42.148Z,28.89
2022-09-20T00:49:49.192Z,28.81
2022-09-20T00:50:58.338Z,28.85
2022-09-20T00:52:04.320Z,28.66
2022-09-20T00:53:12.811Z,28.45
2022-09-20T00:54:20.993Z,28.41
2022-09-20T00:55:28.779Z,28.32
2022-09-20T00:56:39.419Z,28.13
2022-09-20T00:57:49.051Z,27.90
2022-09-20T00:59:04.760Z,27.76
2022-09-20T01:00:12.801Z,27.59
2022-09-20T01:01:25.562Z,27.46
2022-09-20T01:02:31.854Z,27.36
2022-09-20T01:03:39.215Z,27.29
2022-09-20T01:04:46.771Z,27.24
2022-09-20T01:05:56.627Z,27.16
2022-09-20T01:07:04.418Z,27.09
2022-09-20T01:08:11.014Z,27.01
2022-09-20T01:09:17.738Z,26.89
2022-09-20T01:10:24.362Z,26.77
2022-09-20T01:11:32.963Z,26.63
2022-09-20T01:24:54.550Z,25.05
2022-09-20T01:30:27.747Z,24.58
2022-09-20T01:31:37.472Z,24.51
2022-09-20T01:33:22.359Z,24.47
2022-09-20T01:34:31.577Z,24.37
2022-09-20T01:35:37.528Z,24.28
2022-09-20T01:36:50.507Z,24.23
2022-09-20T01:38:08.453Z,24.18
2022-09-20T01:39:36.015Z,24.11
2022-09-20T01:40:51.440Z,24.03
2022-09-20T01:42:06.605Z,23.98
2022-09-20T01:43:31.765Z,23.91
2022-09-20T01:45:02.577Z,23.84
2022-09-20T01:46:19.907Z,23.76
2022-09-20T01:47:40.554Z,23.69
2022-09-20T01:48:48.469Z,23.64
2022-09-20T01:50:46.388Z,23.58
2022-09-20T01:52:15.206Z,23.51
2022-09-20T01:53:39.715Z,23.44
2022-09-20T01:55:05.142Z,23.40
2022-09-20T01:56:35.530Z,23.35
2022-09-20T01:57:48.314Z,23.30
2022-09-20T01:59:24.722Z,23.25
2022-09-20T02:00:59.091Z,23.21
2022-09-20T02:02:11.584Z,23.17
2022-09-20T02:03:56.007Z,23.14
2022-09-20T02:05:24.083Z,23.09
2022-09-20T02:07:12.702Z,23.05
2022-09-20T02:11:13.472Z,22.88
2022-09-20T02:12:40.348Z,22.85
2022-09-20T02:14:03.116Z,22.80
2022-09-20T02:15:46.550Z,22.76
2022-09-20T02:17:16.119Z,22.70
2022-09-20T02:18:53.714Z,22.65
2022-09-20T02:20:31.649Z,22.58
2022-09-20T02:21:47.302Z,22.54
2022-09-20T02:23:23.432Z,22.50
2022-09-20T02:24:45.239Z,22.46
2022-09-20T02:26:12.335Z,22.42
2022-09-20T02:27:33.896Z,22.38
2022-09-20T02:28:50.747Z,22.33
2022-09-20T02:30:26.647Z,22.29
2022-09-20T02:31:49.886Z,22.23
2022-09-20T02:42:20.294Z,22.00
2022-09-20T02:44:07.903Z,21.94
2022-09-20T02:45:51.640Z,21.92
2022-09-20T02:47:49.396Z,21.89
2022-09-20T02:51:49.475Z,21.85
2022-09-20T02:53:53.954Z,21.81
2022-09-20T02:57:57.571Z,21.65
2022-09-20T02:59:28.490Z,21.59
2022-09-20T03:00:57.368Z,21.55
2022-09-20T03:02:04.043Z,21.51
2022-09-20T03:03:21.993Z,21.50
2022-09-20T03:05:15.539Z,21.48
2022-09-20T03:06:49.871Z,21.44
2022-09-20T03:21:03.780Z,21.20
2022-09-20T03:22:38.894Z,21.19
2022-09-20T03:24:29.183Z,21.17
2022-09-20T03:25:41.313Z,21.12
2022-09-20T03:27:08.168Z,21.07
2022-09-20T03:28:26.182Z,21.05
2022-09-20T03:29:41.791Z,21.04
2022-09-20T03:31:09.414Z,21.01
2022-09-20T03:32:25.812Z,20.97
2022-09-20T03:33:56.012Z,20.93
2022-09-20T03:35:17.459Z,20.89
2022-09-20T03:36:28.819Z,20.85
2022-09-20T03:38:08.526Z,20.82
2022-09-20T03:39:48.921Z,20.78
2022-09-20T03:41:07.119Z,20.71
2022-09-20T03:42:38.797Z,20.69
2022-09-20T03:54:21.626Z,20.46
2022-09-20T03:55:46.180Z,20.49
2022-09-20T03:57:21.483Z,20.50
2022-09-20T03:58:32.858Z,20.49
2022-09-20T03:59:49.358Z,20.47
2022-09-20T04:01:32.406Z,20.43
2022-09-20T04:02:53.505Z,20.39
2022-09-20T04:04:15.008Z,20.34
2022-09-20T04:05:31.834Z,20.30
2022-09-20T04:06:39.128Z,20.29
2022-09-20T04:08:01.526Z,20.26
2022-09-20T04:09:44.411Z,20.24
2022-09-20T04:11:10.479Z,20.21
2022-09-20T04:12:49.517Z,20.18
2022-09-20T04:14:14.023Z,20.15
2022-09-20T04:15:24.536Z,20.11
2022-09-20T04:16:36.508Z,20.08
2022-09-20T04:18:25.740Z,20.05
2022-09-20T04:19:33.321Z,20.00
2022-09-20T04:20:45.305Z,19.97
2022-09-20T04:22:03.707Z,19.93
2022-09-20T04:23:39.811Z,19.90
2022-09-20T04:25:11.147Z,19.87
2022-09-20T04:26:19.997Z,19.85
2022-09-20T04:27:28.048Z,19.84
2022-09-20T04:29:04.155Z,19.83
2022-09-20T04:30:24.814Z,19.80
2022-09-20T04:31:58.394Z,19.78
2022-09-20T04:33:23.029Z,19.74
2022-09-20T04:34:57.330Z,19.71
2022-09-20T04:36:31.906Z,19.68
2022-09-20T04:37:40.176Z,19.64
2022-09-20T04:38:52.754Z,19.60
2022-09-20T04:40:11.530Z,19.57
2022-09-20T04:41:39.276Z,19.55
2022-09-20T04:43:25.066Z,19.52
2022-09-20T04:45:09.387Z,19.49
2022-09-20T04:46:29.920Z,19.48
2022-09-20T04:48:14.322Z,19.47
2022-09-20T04:49:52.524Z,19.47
2022-09-20T04:51:23.602Z,19.45
2022-09-20T04:53:07.805Z,19.43
2022-09-20T04:54:47.335Z,19.40
2022-09-20T04:56:30.041Z,19.36
2022-09-20T04:58:00.873Z,19.32
2022-09-20T04:59:37.026Z,19.27
2022-09-20T05:00:59.037Z,19.23
2022-09-20T05:02:35.001Z,19.21
2022-09-20T05:04:17.706Z,19.19
2022-09-20T05:05:51.193Z,19.15
2022-09-20T05:07:33.921Z,19.10
2022-09-20T05:09:15.411Z,19.07
2022-09-20T05:10:58.605Z,19.02
2022-09-20T05:12:29.440Z,19.00
2022-09-20T05:14:07.059Z,18.98
2022-09-20T05:15:35.500Z,18.96
2022-09-20T05:17:02.518Z,18.95
2022-09-20T05:18:40.181Z,18.92
2022-09-20T05:20:13.412Z,18.89
2022-09-20T05:21:36.016Z,18.88
2022-09-20T05:23:03.641Z,18.87
2022-09-20T05:24:53.901Z,18.84
2022-09-20T05:26:12.666Z,18.80
2022-09-20T05:27:39.705Z,18.79
2022-09-20T05:28:51.555Z,18.77
2022-09-20T05:30:08.063Z,18.76
2022-09-20T05:31:35.308Z,18.75
2022-09-20T05:32:56.305Z,18.73
2022-09-20T05:34:33.848Z,18.70
2022-09-20T05:36:08.608Z,18.66
2022-09-20T05:37:41.941Z,18.64
2022-09-20T05:39:07.309Z,18.63
2022-09-20T05:40:30.034Z,18.63
2022-09-20T05:42:10.939Z,18.63
2022-09-20T05:43:32.642Z,18.63
2022-09-20T05:45:00.401Z,18.63
2022-09-20T05:46:17.870Z,18.63
2022-09-20T05:47:33.596Z,18.60
2022-09-20T05:48:59.020Z,18.59
2022-09-20T05:50:39.983Z,18.57
2022-09-20T05:51:50.999Z,18.56
2022-09-20T05:53:35.014Z,18.56
2022-09-20T05:55:18.546Z,18.55
2022-09-20T05:56:31.506Z,18.53
2022-09-20T05:58:18.512Z,18.50
2022-09-20T05:59:42.223Z,18.49
2022-09-20T06:01:13.566Z,18.48
2022-09-20T06:02:45.443Z,18.45
2022-09-20T06:04:13.404Z,18.43
2022-09-20T06:05:51.709Z,18.42
2022-09-20T06:07:26.769Z,18.40
2022-09-20T06:09:02.104Z,18.41
2022-09-20T06:10:52.178Z,18.42
2022-09-20T06:12:06.068Z,18.40
2022-09-20T06:13:49.443Z,18.38
2022-09-20T06:15:22.273Z,18.37
2022-09-20T06:16:59.835Z,18.37
2022-09-20T06:18:16.096Z,18.36
2022-09-20T06:19:51.525Z,18.36
2022-09-20T06:21:16.188Z,18.35
2022-09-20T06:23:00.638Z,18.35
2022-09-20T06:24:08.121Z,18.31
2022-09-20T06:25:32.415Z,18.30
2022-09-20T06:26:40.006Z,18.27
2022-09-20T06:28:13.810Z,18.26
2022-09-20T06:29:21.121Z,18.24
2022-09-20T06:30:32.690Z,18.24
2022-09-20T06:31:40.431Z,18.23
2022-09-20T06:33:01.452Z,18.22
2022-09-20T06:34:12.051Z,18.21
2022-09-20T06:35:21.190Z,18.19
2022-09-20T06:36:59.024Z,18.17
2022-09-20T06:38:38.185Z,18.14
2022-09-20T06:40:41.022Z,18.11
2022-09-20T06:41:47.459Z,18.06
2022-09-20T06:42:55.659Z,18.04
2022-09-20T06:44:02.191Z,18.03
2022-09-20T06:45:08.708Z,18.02
2022-09-20T06:46:16.062Z,18.03
2022-09-20T06:47:23.852Z,18.03
2022-09-20T06:48:32.547Z,18.01
2022-09-20T06:49:41.741Z,18.01
2022-09-20T06:50:52.790Z,18.00
2022-09-20T06:52:00.112Z,17.99
2022-09-20T06:53:06.385Z,17.98
2022-09-20T06:54:15.252Z,17.97
2022-09-20T06:55:28.462Z,17.95
2022-09-20T06:56:37.775Z,17.94
2022-09-20T06:57:45.479Z,17.93
2022-09-20T06:58:55.878Z,17.93
2022-09-20T07:00:04.024Z,17.92
2022-09-20T07:01:16.178Z,17.89
2022-09-20T07:02:30.079Z,17.88
2022-09-20T07:03:36.237Z,17.86
2022-09-20T07:04:42.094Z,17.85
2022-09-20T07:05:49.486Z,17.85
2022-09-20T07:07:04.152Z,17.84
2022-09-20T07:08:15.797Z,17.83
2022-09-20T07:09:22.858Z,17.83
2022-09-20T07:10:31.550Z,17.83
2022-09-20T07:11:37.689Z,17.82
2022-09-20T07:12:43.637Z,17.82
2022-09-20T07:13:52.584Z,17.80
2022-09-20T07:15:01.386Z,17.78
2022-09-20T07:16:08.965Z,17.77
2022-09-20T07:17:15.554Z,17.75
2022-09-20T07:18:21.476Z,17.73
2022-09-20T07:19:30.711Z,17.70
2022-09-20T07:20:39.002Z,17.67
2022-09-20T07:21:46.069Z,17.64
2022-09-20T07:22:57.051Z,17.63
2022-09-20T07:24:06.086Z,17.61
2022-09-20T07:25:14.866Z,17.59
2022-09-20T07:26:26.276Z,17.57
2022-09-20T07:27:35.171Z,17.56
2022-09-20T07:28:42.463Z,17.56
2022-09-20T07:29:48.636Z,17.54
2022-09-20T07:30:56.544Z,17.51
2022-09-20T07:32:03.022Z,17.50
2022-09-20T07:33:12.766Z,17.50
2022-09-20T07:34:21.569Z,17.48
2022-09-20T07:35:30.304Z,17.45
2022-09-20T07:36:36.183Z,17.43
2022-09-20T07:37:42.453Z,17.41
2022-09-20T07:38:54.598Z,17.40
2022-09-20T07:40:00.234Z,17.39
2022-09-20T07:41:08.917Z,17.39
2022-09-20T07:42:15.024Z,17.40
2022-09-20T07:43:20.849Z,17.40
2022-09-20T07:44:28.338Z,17.40
2022-09-20T07:45:35.680Z,17.39
2022-09-20T07:46:41.471Z,17.38
2022-09-20T07:47:47.594Z,17.38
2022-09-20T07:48:54.065Z,17.38
2022-09-20T07:50:01.091Z,17.37
2022-09-20T07:51:09.170Z,17.38
2022-09-20T07:52:15.353Z,17.37
2022-09-20T07:53:21.503Z,17.36
2022-09-20T07:54:28.151Z,17.36
2022-09-20T07:55:36.267Z,17.35
2022-09-20T07:56:42.884Z,17.34
2022-09-20T07:57:50.540Z,17.33
2022-09-20T07:58:56.964Z,17.32
2022-09-20T08:00:02.454Z,17.29
2022-09-20T08:01:21.473Z,17.27
2022-09-20T08:03:53.839Z,17.22
2022-09-20T08:05:00.335Z,17.20
2022-09-20T08:06:11.950Z,17.17
2022-09-20T08:07:18.284Z,17.16
2022-09-20T08:08:24.313Z,17.16
2022-09-20T08:09:30.199Z,17.16
2022-09-20T08:10:36.821Z,17.15
2022-09-20T08:11:47.209Z,17.14
2022-09-20T08:14:25.260Z,17.09
2022-09-20T08:15:32.628Z,17.05
2022-09-20T08:16:42.285Z,17.04
2022-09-20T08:17:50.749Z,17.01
2022-09-20T08:19:00.764Z,16.99
2022-09-20T08:20:09.517Z,16.98
2022-09-20T08:21:18.504Z,16.98
2022-09-20T08:22:26.881Z,16.98
2022-09-20T08:23:41.587Z,16.99
2022-09-20T08:24:49.475Z,17.02
2022-09-20T08:25:58.495Z,17.05
2022-09-20T08:27:07.612Z,17.08
2022-09-20T08:28:16.144Z,17.12
2022-09-20T08:29:22.486Z,17.15
2022-09-20T08:30:30.012Z,17.19
2022-09-20T08:31:37.728Z,17.22
2022-09-20T08:32:44.690Z,17.25
2022-09-20T08:33:52.264Z,17.27
2022-09-20T08:34:58.738Z,17.28
2022-09-20T08:36:04.837Z,17.29
2022-09-20T08:37:10.722Z,17.30
2022-09-20T08:39:59.404Z,17.30
2022-09-20T08:41:06.829Z,17.30
2022-09-20T08:42:37.891Z,17.29
2022-09-20T08:44:05.177Z,17.27
2022-09-20T08:45:36.719Z,17.24
2022-09-20T08:46:50.716Z,17.21
2022-09-20T08:48:00.608Z,17.19
2022-09-20T08:49:10.989Z,17.18
2022-09-20T08:50:18.109Z,17.16
2022-09-20T08:51:24.743Z,17.14
2022-09-20T08:52:36.366Z,17.12
2022-09-20T08:53:53.640Z,17.08
2022-09-20T08:55:01.282Z,17.04
2022-09-20T08:56:08.278Z,16.99
2022-09-20T08:57:17.104Z,16.96
2022-09-20T08:58:23.418Z,16.94
2022-09-20T08:59:32.445Z,16.92
2022-09-20T09:00:39.920Z,16.91
2022-09-20T09:01:46.741Z,16.89
2022-09-20T09:02:57.018Z,16.87
2022-09-20T09:04:19.068Z,16.85
2022-09-20T09:05:41.027Z,16.83
2022-09-20T09:06:47.396Z,16.80
2022-09-20T09:07:55.875Z,16.79
2022-09-20T09:09:02.651Z,16.77
2022-09-20T09:10:09.655Z,16.74
2022-09-20T09:11:17.613Z,16.72
2022-09-20T09:12:27.939Z,16.68
2022-09-20T09:14:05.250Z,16.65
2022-09-20T09:15:30.871Z,16.59
2022-09-20T09:16:36.987Z,16.57
2022-09-20T09:17:44.433Z,16.56
2022-09-20T09:18:52.238Z,16.55
2022-09-20T09:20:02.689Z,16.53
2022-09-20T09:21:08.961Z,16.52
2022-09-20T09:22:23.573Z,16.50
2022-09-20T09:23:32.652Z,16.48
2022-09-20T09:24:40.285Z,16.48
2022-09-20T09:25:46.246Z,16.47
2022-09-20T09:26:52.806Z,16.47
2022-09-20T09:28:01.778Z,16.47
2022-09-20T09:29:18.266Z,16.45
2022-09-20T09:30:32.540Z,16.44
2022-09-20T09:31:40.352Z,16.43
2022-09-20T09:32:46.051Z,16.42
2022-09-20T09:33:52.130Z,16.42
2022-09-20T09:35:21.098Z,16.41
2022-09-20T09:36:27.328Z,16.39
2022-09-20T09:37:33.545Z,16.38
2022-09-20T09:38:40.750Z,16.36
2022-09-20T09:39:48.427Z,16.35
2022-09-20T09:40:59.578Z,16.34
2022-09-20T09:42:29.927Z,16.33
2022-09-20T09:43:38.018Z,16.30
2022-09-20T09:44:44.010Z,16.28
2022-09-20T09:45:50.134Z,16.26
2022-09-20T09:46:57.200Z,16.23
2022-09-20T09:48:03.766Z,16.21
2022-09-20T09:49:22.664Z,16.19
2022-09-20T09:50:34.031Z,16.16
2022-09-20T09:51:40.226Z,16.14
2022-09-20T09:53:00.060Z,16.13
2022-09-20T09:54:06.186Z,16.13
2022-09-20T09:55:14.492Z,16.13
2022-09-20T09:56:22.406Z,16.12
2022-09-20T09:57:44.208Z,16.12
2022-09-20T09:59:11.707Z,16.11
2022-09-20T10:00:24.590Z,16.10
2022-09-20T10:01:40.880Z,16.11
2022-09-20T10:03:12.053Z,16.10
2022-09-20T10:04:30.121Z,16.10
2022-09-20T10:06:13.046Z,16.10
2022-09-20T10:07:42.690Z,16.09
2022-09-20T10:09:25.189Z,16.09
2022-09-20T10:11:00.530Z,16.08
2022-09-20T10:12:34.736Z,16.04
2022-09-20T10:14:00.249Z,16.00
2022-09-20T10:15:11.664Z,15.96
2022-09-20T10:16:37.775Z,15.93
2022-09-20T10:17:45.541Z,15.91
2022-09-20T10:18:56.560Z,15.89
2022-09-20T10:20:40.420Z,15.88
2022-09-20T10:21:52.994Z,15.87
2022-09-20T10:25:10.885Z,15.86
2022-09-20T10:26:22.561Z,15.87
2022-09-20T10:27:59.219Z,15.87
2022-09-20T10:29:41.611Z,15.89
2022-09-20T10:30:56.112Z,15.89
2022-09-20T10:32:15.422Z,15.89
2022-09-20T10:33:48.907Z,15.87
2022-09-20T10:35:23.208Z,15.83
2022-09-20T10:36:34.788Z,15.79
2022-09-20T10:37:49.526Z,15.75
2022-09-20T10:39:22.221Z,15.72
2022-09-20T10:41:07.691Z,15.69
2022-09-20T10:42:50.528Z,15.66
2022-09-20T10:44:20.920Z,15.62
2022-09-20T10:46:30.386Z,15.59
2022-09-20T10:47:21.116Z,15.55
2022-09-20T10:48:33.363Z,15.52
2022-09-20T10:50:10.119Z,15.52
2022-09-20T10:51:29.266Z,15.49
2022-09-20T10:52:56.718Z,15.47
2022-09-20T10:54:27.301Z,15.44
2022-09-20T10:55:41.210Z,15.41
2022-09-20T10:56:50.980Z,15.39
2022-09-20T10:58:09.973Z,15.36
2022-09-20T10:59:27.481Z,15.34
2022-09-20T11:00:55.129Z,15.33
2022-09-20T11:02:28.970Z,15.31
2022-09-20T11:04:14.263Z,15.29
2022-09-20T11:05:40.274Z,15.28
2022-09-20T11:07:19.087Z,15.29
2022-09-20T11:08:27.128Z,15.30
2022-09-20T11:09:38.685Z,15.30
2022-09-20T11:10:46.248Z,15.32
2022-09-20T11:11:56.185Z,15.32
2022-09-20T11:13:56.950Z,15.33
2022-09-20T11:15:13.998Z,15.36
2022-09-20T11:16:23.865Z,15.39
2022-09-20T11:17:38.229Z,15.43
2022-09-20T11:18:51.204Z,15.48
2022-09-20T11:20:07.710Z,15.52
2022-09-20T11:21:19.870Z,15.58
2022-09-20T11:22:40.564Z,15.64
2022-09-20T11:24:24.472Z,15.70
2022-09-20T11:25:45.471Z,15.79
2022-09-20T11:27:05.301Z,15.85
2022-09-20T11:28:26.061Z,15.91
2022-09-20T11:30:02.565Z,15.97
2022-09-20T11:31:34.598Z,16.01
2022-09-20T11:32:54.221Z,16.06
2022-09-20T11:34:33.499Z,16.09
2022-09-20T11:35:47.744Z,16.11
2022-09-20T11:37:03.633Z,16.12
2022-09-20T11:38:15.559Z,16.12
2022-09-20T11:39:41.564Z,16.11
2022-09-20T11:41:03.284Z,16.10
2022-09-20T11:42:15.989Z,16.08
2022-09-20T11:43:22.562Z,16.07
2022-09-20T11:44:28.247Z,16.06
2022-09-20T11:45:34.820Z,16.06
2022-09-20T11:47:03.478Z,16.05
2022-09-20T11:48:12.558Z,16.02
2022-09-20T11:49:31.738Z,16.00
2022-09-20T11:51:07.265Z,15.98
2022-09-20T11:52:50.217Z,15.96
2022-09-20T11:54:09.768Z,15.93
2022-09-20T11:55:29.320Z,15.91
2022-09-20T11:56:35.710Z,15.90
2022-09-20T11:57:42.050Z,15.90
2022-09-20T11:58:52.006Z,15.90
2022-09-20T11:59:58.478Z,15.91
2022-09-20T12:01:04.267Z,15.91
2022-09-20T12:02:45.968Z,15.92
2022-09-20T12:04:00.262Z,15.93
2022-09-20T12:05:46.531Z,15.92
2022-09-20T12:07:42.489Z,15.91
2022-09-20T12:08:51.499Z,15.90
2022-09-20T12:10:02.287Z,15.91
2022-09-20T12:11:12.708Z,15.91
2022-09-20T12:12:24.419Z,15.92
2022-09-20T12:13:36.019Z,15.94
2022-09-20T12:14:43.007Z,15.95
2022-09-20T12:16:00.822Z,15.96
2022-09-20T12:17:07.124Z,15.98
2022-09-20T12:18:32.154Z,16.01
2022-09-20T12:19:39.668Z,16.05
2022-09-20T12:20:46.010Z,16.07
2022-09-20T12:22:00.834Z,16.10
2022-09-20T12:23:42.369Z,16.12
2022-09-20T12:24:49.378Z,16.15
2022-09-20T12:26:08.658Z,16.19
2022-09-20T12:27:34.133Z,16.24
2022-09-20T12:28:44.515Z,16.28
2022-09-20T12:29:55.987Z,16.33
2022-09-20T12:31:34.956Z,16.38
2022-09-20T12:32:52.821Z,16.44
2022-09-20T12:34:12.343Z,16.50
2022-09-20T12:36:00.501Z,16.54
2022-09-20T12:37:08.410Z,16.59
2022-09-20T12:38:31.722Z,16.61
2022-09-20T12:39:40.617Z,16.64
2022-09-20T12:41:14.924Z,16.67
2022-09-20T12:42:32.031Z,16.73
2022-09-20T12:43:40.345Z,16.77
2022-09-20T12:44:52.089Z,16.80
2022-09-20T12:46:03.849Z,16.85
2022-09-20T12:47:13.753Z,16.90
2022-09-20T12:48:22.994Z,16.95
2022-09-20T12:50:02.247Z,16.99
2022-09-20T12:51:39.848Z,17.03
2022-09-20T12:52:59.719Z,17.06
2022-09-20T12:54:09.229Z,17.10
2022-09-20T12:55:33.167Z,17.12
2022-09-20T12:56:41.586Z,17.14
2022-09-20T12:57:49.380Z,17.17
2022-09-20T12:58:58.346Z,17.19
2022-09-20T13:00:06.887Z,17.20
2022-09-20T13:01:14.630Z,17.23
2022-09-20T13:02:56.344Z,17.26
2022-09-20T13:04:40.082Z,17.27
2022-09-20T13:05:47.729Z,17.28
2022-09-20T13:07:57.881Z,17.28
2022-09-20T13:09:05.989Z,17.28
2022-09-20T13:10:38.810Z,17.28
2022-09-20T13:12:12.181Z,17.28
2022-09-20T13:13:45.524Z,17.28
2022-09-20T13:14:53.229Z,17.26
2022-09-20T13:15:59.955Z,17.26
2022-09-20T13:17:32.495Z,17.27
2022-09-20T13:18:38.647Z,17.27
2022-09-20T13:19:47.863Z,17.26
2022-09-20T13:20:56.865Z,17.25
2022-09-20T13:22:03.785Z,17.23
2022-09-20T13:23:10.986Z,17.20
2022-09-20T13:24:19.403Z,17.16
2022-09-20T13:25:26.143Z,17.10
2022-09-20T13:26:41.904Z,17.04
2022-09-20T13:28:10.464Z,16.98
2022-09-20T13:29:33.895Z,16.91
2022-09-20T13:30:43.206Z,16.84
2022-09-20T13:31:50.328Z,16.78
2022-09-20T13:33:00.077Z,16.73
2022-09-20T13:34:20.401Z,16.69
2022-09-20T13:35:30.516Z,16.63
2022-09-20T13:36:39.324Z,16.58
2022-09-20T13:37:55.172Z,16.54
2022-09-20T13:39:01.305Z,16.50
2022-09-20T13:40:07.751Z,16.47
2022-09-20T13:41:13.916Z,16.44
2022-09-20T13:42:21.595Z,16.43
2022-09-20T13:43:39.436Z,16.41
2022-09-20T13:44:45.555Z,16.38
2022-09-20T13:45:54.529Z,16.35
2022-09-20T13:47:00.661Z,16.32
2022-09-20T13:48:06.565Z,16.29
2022-09-20T13:49:24.176Z,16.27
2022-09-20T13:50:32.348Z,16.24
2022-09-20T13:51:38.341Z,16.21
2022-09-20T13:52:57.399Z,16.19
2022-09-20T13:54:25.729Z,16.17
2022-09-20T13:55:33.768Z,16.16
2022-09-20T13:56:39.587Z,16.15
2022-09-20T13:57:48.750Z,16.14
2022-09-20T13:58:54.894Z,16.12
2022-09-20T14:00:00.929Z,16.12
2022-09-20T14:01:31.239Z,16.11
2022-09-20T14:02:37.292Z,16.10
2022-09-20T14:03:43.034Z,16.10
2022-09-20T14:04:51.222Z,16.11
2022-09-20T14:06:02.462Z,16.12
2022-09-20T14:07:09.134Z,16.12
2022-09-20T14:08:27.789Z,16.12
2022-09-20T14:09:35.005Z,16.13
2022-09-20T14:10:44.875Z,16.13
2022-09-20T14:11:51.280Z,16.16
2022-09-20T14:13:02.816Z,16.17
2022-09-20T14:14:10.547Z,16.19
2022-09-20T14:15:17.602Z,16.22
2022-09-20T14:16:29.638Z,16.25
2022-09-20T14:17:36.963Z,16.31
2022-09-20T14:18:43.116Z,16.36
2022-09-20T14:19:50.601Z,16.42
2022-09-20T14:20:56.781Z,16.48
2022-09-20T14:22:06.511Z,16.55
2022-09-20T14:24:03.114Z,16.67
2022-09-20T14:25:15.156Z,16.87
2022-09-20T14:27:01.225Z,17.01
2022-09-20T14:28:22.830Z,17.19
2022-09-20T14:29:41.751Z,17.30
2022-09-20T14:30:48.062Z,17.37
2022-09-20T14:31:54.014Z,17.42
2022-09-20T14:33:01.760Z,17.47
2022-09-20T14:34:13.174Z,17.53
2022-09-20T14:35:25.101Z,17.60
2022-09-20T14:36:31.479Z,17.71
2022-09-20T14:37:47.300Z,17.89
2022-09-20T14:39:03.458Z,18.04
2022-09-20T14:40:29.087Z,18.20
2022-09-20T14:41:39.857Z,18.53
2022-09-20T14:42:47.550Z,18.80
2022-09-20T14:43:57.792Z,19.00
2022-09-20T14:45:05.237Z,19.20
2022-09-20T14:46:18.140Z,19.31
2022-09-20T14:47:59.591Z,19.38
2022-09-20T14:49:24.130Z,19.42
2022-09-20T14:50:38.316Z,19.42
2022-09-20T14:51:45.579Z,19.44
2022-09-20T14:53:19.615Z,19.50
2022-09-20T14:54:32.804Z,19.54
2022-09-20T14:55:58.705Z,19.54
2022-09-20T14:57:05.579Z,19.51
2022-09-20T14:58:17.165Z,19.49
2022-09-20T14:59:31.046Z,19.51
2022-09-20T15:01:06.660Z,19.58
2022-09-20T15:02:14.669Z,19.81
2022-09-20T15:03:44.854Z,20.21
2022-09-20T15:05:00.932Z,20.77
2022-09-20T15:06:11.027Z,21.14
2022-09-20T15:07:17.024Z,21.39
2022-09-20T15:08:22.994Z,21.56
2022-09-20T15:09:28.692Z,21.71
2022-09-20T15:10:34.664Z,21.87
2022-09-20T15:11:41.471Z,22.09
2022-09-20T15:12:47.300Z,22.21
2022-09-20T15:13:53.515Z,22.31
2022-09-20T15:15:01.249Z,22.50
2022-09-20T15:16:07.738Z,22.67
2022-09-20T15:17:23.203Z,22.71
2022-09-20T15:18:35.322Z,22.66
2022-09-20T15:19:41.743Z,22.55
2022-09-20T15:20:47.903Z,22.42
2022-09-20T15:21:54.821Z,22.40
2022-09-20T15:23:01.113Z,22.64
2022-09-20T15:24:09.103Z,22.99
2022-09-20T15:25:25.736Z,23.20
2022-09-20T15:26:35.004Z,23.27
2022-09-20T15:27:41.328Z,23.32
2022-09-20T15:28:50.077Z,23.54
2022-09-20T15:29:57.040Z,23.73
2022-09-20T15:31:05.663Z,23.85
2022-09-20T15:32:17.962Z,23.84
2022-09-20T15:33:25.546Z,23.84
2022-09-20T15:34:31.906Z,23.85
2022-09-20T15:35:43.799Z,23.87
2022-09-20T15:36:51.755Z,23.83
2022-09-20T15:37:57.714Z,23.89
2022-09-20T15:39:03.870Z,24.03
2022-09-20T15:40:10.358Z,24.33
2022-09-20T15:41:16.375Z,24.70
2022-09-20T15:42:22.432Z,25.04
2022-09-20T15:43:31.571Z,25.38
2022-09-20T15:44:37.487Z,25.65
2022-09-20T15:45:50.682Z,25.77
2022-09-20T15:46:58.689Z,25.81
2022-09-20T15:48:04.586Z,25.84
2022-09-20T15:49:12.524Z,25.79
2022-09-20T15:50:19.636Z,25.70
2022-09-20T15:51:27.116Z,25.64
2022-09-20T15:52:42.308Z,25.64
2022-09-20T15:53:59.689Z,25.63
2022-09-20T15:55:07.751Z,25.63
2022-09-20T15:56:21.843Z,25.68
2022-09-20T15:57:30.856Z,25.82
2022-09-20T15:58:37.866Z,25.98
2022-09-20T15:59:50.911Z,26.07
2022-09-20T16:01:02.978Z,25.95
2022-09-20T16:02:11.912Z,25.89
2022-09-20T16:03:19.671Z,26.00
2022-09-20T16:04:26.750Z,26.18
2022-09-20T16:05:32.910Z,26.29
2022-09-20T16:06:39.030Z,26.40
2022-09-20T16:07:46.701Z,26.52
2022-09-20T16:08:52.674Z,26.66
2022-09-20T16:09:59.042Z,26.67
2022-09-20T16:11:05.970Z,26.58
2022-09-20T16:12:12.683Z,26.38
2022-09-20T16:13:20.954Z,26.27
2022-09-20T16:14:31.728Z,26.24
2022-09-20T16:18:03.509Z,26.16
2022-09-20T16:19:18.419Z,26.14
2022-09-20T16:20:27.507Z,26.16
2022-09-20T16:21:33.991Z,26.11
2022-09-20T16:22:41.904Z,25.73
2022-09-20T16:23:56.412Z,25.41
2022-09-20T16:25:06.913Z,25.11
2022-09-20T16:26:22.758Z,24.89
2022-09-20T16:27:35.122Z,24.83
2022-09-20T16:28:47.533Z,24.78
2022-09-20T16:29:57.306Z,24.72
2022-09-20T16:31:03.573Z,24.84
2022-09-20T16:32:10.026Z,24.99
2022-09-20T16:33:16.589Z,25.17
2022-09-20T16:34:40.545Z,25.42
2022-09-20T16:35:48.409Z,25.82
2022-09-20T16:36:55.147Z,26.17
2022-09-20T16:38:01.349Z,26.42
2022-09-20T16:39:11.248Z,26.60
2022-09-20T16:40:23.109Z,26.69
2022-09-20T16:41:32.733Z,26.79
2022-09-20T16:42:38.886Z,26.90
2022-09-20T16:43:50.806Z,27.01
2022-09-20T16:44:58.116Z,26.90
2022-09-20T16:46:03.947Z,26.48
2022-09-20T16:47:12.498Z,26.29
2022-09-20T16:48:17.967Z,26.18
2022-09-20T16:49:27.091Z,26.16
2022-09-20T16:50:33.159Z,26.14
2022-09-20T16:51:40.130Z,26.09
2022-09-20T16:52:47.931Z,26.21
2022-09-20T16:53:56.512Z,26.27
2022-09-20T16:55:03.902Z,26.37
2022-09-20T16:56:22.693Z,26.45
2022-09-20T16:57:28.905Z,26.43
2022-09-20T16:58:35.994Z,26.30
2022-09-20T16:59:41.730Z,26.20
2022-09-20T17:00:49.235Z,26.15
2022-09-20T17:01:56.284Z,26.03
2022-09-20T17:03:17.024Z,25.82
2022-09-20T17:04:45.385Z,25.62
2022-09-20T17:12:43.961Z,26.49
2022-09-20T17:14:05.424Z,26.46
2022-09-20T17:29:10.604Z,26.81
2022-09-20T17:30:28.285Z,26.81
2022-09-20T17:31:46.886Z,26.86
2022-09-20T17:32:59.686Z,27.10
2022-09-20T17:36:29.458Z,27.59
2022-09-20T17:37:41.958Z,27.71
2022-09-20T17:41:27.188Z,27.90
2022-09-20T17:42:36.381Z,28.26
2022-09-20T17:43:55.283Z,28.58
2022-09-20T17:45:32.194Z,28.88
2022-09-20T17:46:47.649Z,29.04
2022-09-20T17:47:57.740Z,29.14
2022-09-20T17:49:07.879Z,29.25
2022-09-20T17:50:15.414Z,29.32
2022-09-20T17:51:27.364Z,29.56
2022-09-20T17:52:36.498Z,29.82
2022-09-20T17:53:42.410Z,29.93
2022-09-20T17:54:49.238Z,29.94
2022-09-20T17:55:58.839Z,29.65
2022-09-20T17:57:06.203Z,29.38
2022-09-20T17:58:13.339Z,29.28
2022-09-20T17:59:22.110Z,29.38
2022-09-20T18:00:44.337Z,29.55
2022-09-20T18:02:14.815Z,29.70
2022-09-20T18:05:38.896Z,29.50
2022-09-20T18:07:13.968Z,29.75
2022-09-20T18:08:42.500Z,30.04
2022-09-20T18:09:48.854Z,30.34
2022-09-20T18:11:14.473Z,30.50
2022-09-20T18:12:27.111Z,30.68